Time;durP1;ratioP1;P1;durP2;ratioP2;P2;SDS_P1;SDS_P2;PMS_P1;PMS_P2;Temp;Humidity;BMP_temperature;BMP_pressure;BME280_temperature;BME280_humidity;BME280_pressure;Samples;Min_cycle;Max_cycle;Signal;HPM_P1;HPM_P2
2021/04/23 00:02:47;;;;;;;22.88;8.27;;;;;;;5.55;79.75;102376.00;6237976;28;20053;-73
2021/04/23 00:05:49;;;;;;;26.05;8.20;;;;;;;5.46;80.31;102373.44;6226735;28;20049;-72
2021/04/23 00:08:54;;;;;;;21.65;8.07;;;;;;;5.49;80.57;102368.19;6226511;28;20050;-72
2021/04/23 00:11:57;;;;;;;22.20;8.30;;;;;;;5.46;80.42;102369.09;6226421;28;20056;-72
2021/04/23 00:14:58;;;;;;;21.60;7.47;;;;;;;5.52;80.74;102369.03;6242516;28;20049;-72
2021/04/23 00:18:00;;;;;;;19.42;7.50;;;;;;;5.77;79.39;102372.38;6250890;28;20041;-72
2021/04/23 00:21:01;;;;;;;15.40;7.25;;;;;;;5.77;79.74;102372.38;6239302;28;20041;-72
2021/04/23 00:24:04;;;;;;;23.65;7.88;;;;;;;5.50;80.89;102365.59;6250411;28;20107;-72
2021/04/23 00:27:06;;;;;;;22.17;7.95;;;;;;;5.55;81.11;102376.84;6250693;28;20072;-72
2021/04/23 00:30:08;;;;;;;24.30;7.97;;;;;;;5.49;81.51;102376.00;6250511;28;20045;-72
2021/04/23 00:33:10;;;;;;;25.67;8.52;;;;;;;5.60;80.80;102375.06;6250317;28;20421;-72
2021/04/23 00:36:11;;;;;;;18.42;7.75;;;;;;;5.64;80.62;102375.94;6250593;28;20050;-72
2021/04/23 00:39:13;;;;;;;27.15;7.78;;;;;;;5.51;81.26;102374.28;6250487;28;20049;-73
2021/04/23 00:42:14;;;;;;;26.48;8.60;;;;;;;5.45;81.97;102372.56;6250451;28;20060;-72
2021/04/23 00:45:17;;;;;;;31.00;8.70;;;;;;;5.47;82.17;102372.56;6250272;28;20085;-73
2021/04/23 00:48:19;;;;;;;33.50;8.23;;;;;;;5.51;81.87;102367.31;6264045;23;20049;-70
2021/04/23 00:51:23;;;;;;;22.00;7.93;;;;;;;5.71;81.87;102368.91;6225683;28;20099;-69
2021/04/23 00:54:26;;;;;;;27.40;9.45;;;;;;;5.69;81.87;102370.69;6225377;28;20050;-70
2021/04/23 00:57:27;;;;;;;25.70;7.90;;;;;;;5.57;81.97;102369.88;6216785;28;20050;-70
2021/04/23 01:00:28;;;;;;;17.95;7.63;;;;;;;5.71;81.05;102372.38;6223415;28;20069;-70
2021/04/23 01:03:30;;;;;;;26.98;8.68;;;;;;;5.66;81.12;102370.69;6225462;28;20046;-70
2021/04/23 01:06:34;;;;;;;22.27;7.90;;;;;;;5.50;82.54;102368.19;6225405;28;20049;-70
2021/04/23 01:09:36;;;;;;;21.77;8.45;;;;;;;5.41;82.76;102367.41;6224682;28;20096;-70
2021/04/23 01:12:37;;;;;;;24.77;8.25;;;;;;;5.38;82.93;102370.88;6225268;28;20414;-71
2021/04/23 01:15:38;;;;;;;23.83;7.95;;;;;;;5.66;81.44;102371.56;6224874;28;20183;-71
2021/04/23 01:18:40;;;;;;;25.10;8.80;;;;;;;5.40;82.38;102374.31;6225179;28;20049;-70
2021/04/23 01:21:43;;;;;;;24.08;7.68;;;;;;;5.46;83.08;102374.31;6224978;28;20486;-71
2021/04/23 01:24:44;;;;;;;21.05;8.13;;;;;;;5.58;81.89;102374.22;6224908;28;20053;-71
2021/04/23 01:27:46;;;;;;;20.25;7.95;;;;;;;5.52;82.10;102383.81;6224823;28;20045;-70
2021/04/23 01:30:47;;;;;;;28.75;8.68;;;;;;;5.42;82.65;102374.34;6224758;28;20050;-70
2021/04/23 01:33:50;;;;;;;21.50;8.25;;;;;;;5.61;81.99;102373.34;6224423;28;20141;-70
2021/04/23 01:36:53;;;;;;;20.40;7.07;;;;;;;5.38;83.10;102378.69;6224845;28;20045;-70
2021/04/23 01:39:56;;;;;;;24.23;8.38;;;;;;;5.41;83.19;102380.44;6224555;28;20609;-70
2021/04/23 01:42:57;;;;;;;21.35;8.52;;;;;;;5.43;83.24;102378.66;6224467;28;20096;-70
2021/04/23 01:45:58;;;;;;;21.23;8.50;;;;;;;5.25;83.33;102377.03;6224570;28;20108;-70
2021/04/23 01:49:00;;;;;;;31.38;8.90;;;;;;;5.25;83.50;102384.84;6224212;28;20046;-70
2021/04/23 01:52:06;;;;;;;21.85;7.38;;;;;;;5.42;82.94;102384.75;6224157;28;20058;-70
2021/04/23 01:55:09;;;;;;;23.10;8.05;;;;;;;5.30;82.91;102383.94;6224057;28;20049;-70
2021/04/23 01:58:11;;;;;;;23.58;9.90;;;;;;;5.37;83.60;102382.19;6224181;28;20046;-70
2021/04/23 02:01:14;;;;;;;28.58;9.05;;;;;;;5.49;83.24;102389.03;6224025;28;20553;-70
2021/04/23 02:04:16;;;;;;;28.10;8.60;;;;;;;5.45;83.30;102388.22;6224045;28;20050;-70
2021/04/23 02:07:19;;;;;;;22.52;8.60;;;;;;;5.20;83.92;102384.00;6224051;28;20054;-72
2021/04/23 02:10:22;;;;;;;28.05;8.80;;;;;;;5.21;84.05;102390.94;6224068;28;20069;-72
2021/04/23 02:13:25;;;;;;;27.88;8.60;;;;;;;5.04;85.03;102399.72;6223653;28;20050;-69
2021/04/23 02:16:26;;;;;;;31.13;9.40;;;;;;;5.01;85.05;102391.91;6223879;28;20407;-70
2021/04/23 02:19:27;;;;;;;30.67;9.13;;;;;;;5.01;85.34;102397.09;6223488;28;20057;-70
2021/04/23 02:22:29;;;;;;;27.23;8.32;;;;;;;5.08;84.78;102401.41;6223020;28;20137;-70
2021/04/23 02:25:30;;;;;;;33.85;9.77;;;;;;;4.96;84.76;102405.81;6223525;28;20058;-70
2021/04/23 02:28:31;;;;;;;27.95;9.32;;;;;;;5.03;85.05;102405.78;6223318;28;20046;-70
2021/04/23 02:31:33;;;;;;;29.42;8.77;;;;;;;4.95;85.38;102410.16;6223583;28;20053;-70
2021/04/23 02:34:34;;;;;;;24.38;9.25;;;;;;;5.03;85.30;102404.91;6223102;28;20049;-70
2021/04/23 02:37:37;;;;;;;24.67;8.95;;;;;;;5.23;84.74;102405.72;6223341;28;20045;-70
2021/04/23 02:40:38;;;;;;;30.50;9.27;;;;;;;4.94;85.70;102420.56;6223055;28;20414;-70
2021/04/23 02:43:44;;;;;;;21.27;8.13;;;;;;;4.97;85.94;102405.81;6222927;28;20051;-70
2021/04/23 02:46:45;;;;;;;28.40;10.02;;;;;;;5.12;84.48;102398.78;6223051;28;20141;-70
2021/04/23 02:49:46;;;;;;;25.67;8.93;;;;;;;5.13;84.40;102405.72;6222927;28;20108;-71
2021/04/23 02:52:48;;;;;;;23.35;8.45;;;;;;;4.96;84.08;102404.06;6223019;28;20053;-70
2021/04/23 02:55:49;;;;;;;25.95;8.35;;;;;;;4.97;83.95;102408.41;6222701;28;20046;-70
2021/04/23 02:58:50;;;;;;;16.67;7.72;;;;;;;5.02;84.80;102405.78;6222740;28;20046;-70
2021/04/23 03:01:56;;;;;;;24.48;8.68;;;;;;;4.95;84.57;102410.16;6222767;28;20045;-70
2021/04/23 03:04:57;;;;;;;21.95;8.05;;;;;;;5.01;84.88;102420.56;6222593;28;20061;-70
2021/04/23 03:07:59;;;;;;;29.77;9.57;;;;;;;4.90;85.00;102417.09;6222599;28;20069;-72
2021/04/23 03:11:07;;;;;;;23.80;7.88;;;;;;;4.89;85.26;102425.78;6222751;28;20050;-71
2021/04/23 03:14:09;;;;;;;27.75;8.35;;;;;;;4.87;84.69;102409.31;6222199;28;20072;-70
2021/04/23 03:17:10;;;;;;;24.05;9.55;;;;;;;4.91;84.33;102416.25;6222641;28;20054;-70
2021/04/23 03:20:17;;;;;;;22.30;7.88;;;;;;;4.92;84.03;102417.97;6222283;28;20107;-70
2021/04/23 03:23:18;;;;;;;23.55;7.22;;;;;;;5.16;83.14;102417.00;6222207;28;20399;-71
2021/04/23 03:26:21;;;;;;;14.55;7.60;;;;;;;5.19;83.32;102406.59;6222203;28;20077;-71
2021/04/23 03:29:22;;;;;;;23.25;8.95;;;;;;;4.92;84.04;102410.16;6222433;28;20045;-71
2021/04/23 03:32:23;;;;;;;18.52;7.60;;;;;;;4.93;84.36;102424.91;6222105;28;20050;-71
2021/04/23 03:35:24;;;;;;;24.00;8.20;;;;;;;4.96;83.69;102421.44;6222338;28;20123;-71
2021/04/23 03:38:30;;;;;;;21.38;7.95;;;;;;;5.07;83.83;102420.53;6222267;28;20041;-71
2021/04/23 03:41:33;;;;;;;24.75;8.25;;;;;;;4.95;83.88;102428.41;6222070;28;20050;-70
2021/04/23 03:44:34;;;;;;;20.83;7.93;;;;;;;4.96;84.29;102437.06;6221941;28;20457;-71
2021/04/23 03:47:35;;;;;;;20.52;9.00;;;;;;;5.00;83.56;102437.06;6222003;28;20049;-71
2021/04/23 03:50:37;;;;;;;19.95;7.72;;;;;;;5.01;83.12;102436.19;6221836;28;20422;-71
2021/04/23 03:53:39;;;;;;;28.25;8.10;;;;;;;5.11;83.28;102433.56;6221793;28;20053;-70
2021/04/23 03:56:40;;;;;;;21.05;8.32;;;;;;;4.95;83.92;102441.44;6222113;28;20494;-70
2021/04/23 03:59:41;;;;;;;19.48;7.70;;;;;;;5.07;83.81;102449.19;6221799;28;20104;-70
2021/04/23 04:02:42;;;;;;;23.38;8.18;;;;;;;4.87;84.80;102442.31;6222064;28;20061;-70
2021/04/23 04:05:44;;;;;;;22.00;8.00;;;;;;;4.94;83.90;102452.69;6221694;28;20073;-70
2021/04/23 04:08:45;;;;;;;24.27;8.38;;;;;;;4.95;84.53;102456.16;6221944;28;20046;-70
2021/04/23 04:11:46;;;;;;;21.45;8.05;;;;;;;4.89;84.38;102450.97;6221855;28;20054;-70
2021/04/23 04:14:47;;;;;;;26.63;7.97;;;;;;;4.80;85.04;102444.03;6221447;28;20521;-70
2021/04/23 04:17:48;;;;;;;26.98;8.02;;;;;;;4.90;85.17;102448.34;6221556;28;20129;-70
2021/04/23 04:20:50;;;;;;;21.77;7.72;;;;;;;4.95;84.13;102458.75;6221634;28;20081;-70
2021/04/23 04:23:52;;;;;;;26.58;8.30;;;;;;;4.88;85.19;102465.75;6221415;28;20395;-71
2021/04/23 04:26:53;;;;;;;23.95;8.70;;;;;;;4.83;84.78;102462.28;6221653;28;20060;-71
2021/04/23 04:29:54;;;;;;;32.60;8.27;;;;;;;4.87;85.23;102461.41;6221430;28;20498;-71
2021/04/23 04:32:56;;;;;;;23.90;8.20;;;;;;;4.88;84.77;102454.47;6221254;28;20046;-71
2021/04/23 04:35:57;;;;;;;19.85;7.38;;;;;;;4.92;84.85;102459.66;6221947;28;20100;-70
2021/04/23 04:38:59;;;;;;;29.83;8.25;;;;;;;4.84;84.97;102472.69;6221438;28;20042;-71
2021/04/23 04:42:00;;;;;;;22.02;7.68;;;;;;;4.95;85.34;102479.59;6221432;28;20054;-70
2021/04/23 04:45:01;;;;;;;22.40;7.72;;;;;;;5.09;84.40;102481.34;6223929;28;20050;-71
2021/04/23 04:48:03;;;;;;;31.50;8.25;;;;;;;4.89;85.18;102496.13;6225522;28;20073;-71
2021/04/23 04:51:05;;;;;;;20.95;7.90;;;;;;;5.08;85.80;102492.59;6225940;28;20054;-70
2021/04/23 04:54:07;;;;;;;18.60;7.72;;;;;;;5.02;84.35;102489.16;6225346;28;20054;-70
2021/04/23 04:57:08;;;;;;;27.13;8.45;;;;;;;4.94;85.26;102490.91;6225819;28;20053;-70
2021/04/23 05:00:11;;;;;;;24.42;8.80;;;;;;;4.95;85.30;102490.03;6225316;28;20077;-70
2021/04/23 05:03:13;;;;;;;24.02;7.65;;;;;;;5.15;84.73;102492.59;6225508;28;20045;-71
2021/04/23 05:06:14;;;;;;;19.98;8.30;;;;;;;5.12;84.87;102505.63;6225449;28;20053;-71
2021/04/23 05:09:16;;;;;;;23.70;8.02;;;;;;;5.09;85.66;102502.19;6225671;28;20084;-70
2021/04/23 05:12:18;;;;;;;21.92;8.40;;;;;;;5.12;85.70;102503.03;6225471;28;20049;-70
2021/04/23 05:15:20;;;;;;;23.77;7.65;;;;;;;5.18;83.92;102501.28;6224854;28;20072;-70
2021/04/23 05:18:21;;;;;;;23.98;8.07;;;;;;;5.13;85.35;102503.00;6225006;28;20049;-71
2021/04/23 05:21:22;;;;;;;23.92;8.15;;;;;;;5.20;84.55;102507.34;6225007;28;20518;-70
2021/04/23 05:24:24;;;;;;;25.48;8.43;;;;;;;5.19;84.77;102502.16;6224991;28;20054;-70
2021/04/23 05:27:25;;;;;;;16.13;7.90;;;;;;;5.11;84.52;102506.50;6224952;28;20053;-70
2021/04/23 05:30:29;;;;;;;22.70;7.28;;;;;;;5.20;84.39;102509.09;6225021;28;20132;-70
2021/04/23 05:33:30;;;;;;;21.52;8.02;;;;;;;5.15;84.73;102510.84;6224612;28;20050;-70
2021/04/23 05:36:31;;;;;;;23.77;7.78;;;;;;;4.94;85.38;102510.00;6224889;28;20052;-71
2021/04/23 05:39:33;;;;;;;30.55;8.25;;;;;;;4.89;85.70;102518.69;6224741;28;20449;-71
2021/04/23 05:42:34;;;;;;;22.83;7.75;;;;;;;4.92;85.71;102516.09;6224745;28;20081;-71
2021/04/23 05:45:35;;;;;;;21.85;7.78;;;;;;;4.95;85.87;102526.50;6224405;28;20049;-71
2021/04/23 05:48:36;;;;;;;23.10;7.70;;;;;;;5.05;85.47;102530.84;6224203;28;20497;-71
2021/04/23 05:51:37;;;;;;;18.48;7.38;;;;;;;5.13;85.00;102546.44;6224455;28;20100;-71
2021/04/23 05:54:39;;;;;;;27.23;7.60;;;;;;;5.12;84.70;102542.13;6223483;28;20132;-70
2021/04/23 05:57:40;;;;;;;27.25;7.47;;;;;;;5.14;84.31;102537.78;6223742;28;20054;-70
2021/04/23 06:00:42;;;;;;;20.50;8.10;;;;;;;5.40;83.50;102532.47;6233749;28;20077;-70
2021/04/23 06:03:43;;;;;;;18.38;7.28;;;;;;;5.30;83.74;102531.66;6240419;28;20056;-70
2021/04/23 06:06:44;;;;;;;24.92;6.93;;;;;;;5.38;83.35;102532.50;6248507;28;20049;-71
2021/04/23 06:09:46;;;;;;;19.80;6.90;;;;;;;5.31;83.92;102534.28;6248672;28;20158;-71
2021/04/23 06:12:47;;;;;;;20.80;7.13;;;;;;;5.30;83.48;102536.84;6248436;28;20057;-71
2021/04/23 06:15:48;;;;;;;19.48;7.55;;;;;;;5.29;83.76;102528.19;6248022;28;20053;-70
2021/04/23 06:18:49;;;;;;;25.13;7.50;;;;;;;5.45;82.09;102536.84;6248182;28;20049;-70
2021/04/23 06:21:51;;;;;;;22.83;7.55;;;;;;;5.55;83.24;102537.66;6248117;28;20068;-70
2021/04/23 06:24:53;;;;;;;25.65;7.70;;;;;;;5.69;82.24;102535.88;6236249;28;20056;-71
2021/04/23 06:27:54;;;;;;;18.65;7.18;;;;;;;5.89;80.59;102529.69;6247856;28;20061;-71
2021/04/23 06:30:55;;;;;;;24.35;7.00;;;;;;;5.86;81.61;102548.84;6248129;28;20054;-70
2021/04/23 06:33:56;;;;;;;16.42;6.38;;;;;;;6.19;79.30;102542.59;6247642;28;20529;-71
2021/04/23 06:36:57;;;;;;;23.38;7.75;;;;;;;6.07;78.90;102540.91;6247929;28;20053;-71
2021/04/23 06:39:59;;;;;;;30.20;7.68;;;;;;;6.10;79.07;102551.34;6247791;28;20079;-70
2021/04/23 06:43:00;;;;;;;25.48;6.75;;;;;;;6.09;78.34;102552.22;6247400;28;20056;-71
2021/04/23 06:46:01;;;;;;;26.40;6.90;;;;;;;6.18;79.01;102546.09;6247720;28;20076;-71
2021/04/23 06:49:02;;;;;;;15.88;7.00;;;;;;;6.27;77.69;102542.56;6247471;28;20072;-71
2021/04/23 06:52:03;;;;;;;19.45;6.30;;;;;;;6.31;78.49;102554.69;6238015;28;20053;-70
2021/04/23 06:55:07;;;;;;;27.73;6.95;;;;;;;6.30;77.68;102555.56;6240978;28;20053;-71
2021/04/23 06:58:08;;;;;;;28.35;6.63;;;;;;;6.47;77.05;102548.50;6247289;28;20053;-71
2021/04/23 07:01:08;;;;;;;24.52;6.55;;;;;;;6.78;75.61;102553.47;6247328;28;20049;-70
2021/04/23 07:04:09;;;;;;;15.20;6.40;;;;;;;6.71;76.99;102565.72;6247131;28;20192;-71
2021/04/23 07:07:10;;;;;;;20.73;6.65;;;;;;;6.70;75.73;102560.50;6246676;28;20417;-71
2021/04/23 07:10:14;;;;;;;19.20;6.43;;;;;;;6.81;76.00;102556.94;6247313;28;20067;-71
2021/04/23 07:13:16;;;;;;;18.88;6.00;;;;;;;7.00;75.78;102555.03;6246764;28;20382;-71
2021/04/23 07:16:17;;;;;;;18.27;5.47;;;;;;;6.91;73.96;102556.88;6247010;28;20053;-71
2021/04/23 07:19:18;;;;;;;23.10;6.38;;;;;;;6.93;73.54;102557.69;6246779;28;20132;-71
2021/04/23 07:22:18;;;;;;;17.77;5.35;;;;;;;6.97;72.57;102549.81;6246831;28;20107;-71
2021/04/23 07:25:22;;;;;;;19.58;5.80;;;;;;;6.89;73.18;102564.69;6236878;28;20052;-71
2021/04/23 07:28:23;;;;;;;18.02;4.85;;;;;;;7.06;72.39;102562.81;6231632;28;20049;-70
2021/04/23 07:31:24;;;;;;;15.57;5.35;;;;;;;7.09;70.16;102556.69;6242565;28;20128;-71
2021/04/23 07:34:25;;;;;;;13.32;4.32;;;;;;;7.29;69.93;102565.19;6237998;28;20076;-71
2021/04/23 07:37:26;;;;;;;13.82;3.97;;;;;;;7.22;69.92;102560.03;6246806;28;20145;-70
2021/04/23 07:40:28;;;;;;;20.50;4.47;;;;;;;7.24;69.41;102566.97;6233598;28;20050;-70
2021/04/23 07:43:29;;;;;;;25.65;4.57;;;;;;;7.21;69.08;102567.00;6227063;28;20050;-70
2021/04/23 07:46:30;;;;;;;20.45;5.32;;;;;;;7.18;69.39;102580.13;6222223;28;20081;-70
2021/04/23 07:49:31;;;;;;;16.65;4.80;;;;;;;7.17;68.87;102580.13;6221659;28;20057;-71
2021/04/23 07:52:32;;;;;;;17.35;4.93;;;;;;;7.21;68.12;102584.44;6222202;28;20057;-71
2021/04/23 07:55:34;;;;;;;16.15;3.72;;;;;;;7.22;67.96;102578.31;6221607;28;20056;-71
2021/04/23 07:58:35;;;;;;;22.10;4.85;;;;;;;7.37;68.57;102580.81;6221935;28;20049;-71
2021/04/23 08:01:35;;;;;;;20.83;4.28;;;;;;;7.32;67.22;102578.25;6222240;28;20511;-71
2021/04/23 08:04:38;;;;;;;20.17;4.18;;;;;;;7.49;68.10;102578.03;6224137;28;20316;-71
2021/04/23 08:07:39;;;;;;;18.33;4.55;;;;;;;7.37;68.13;102573.81;6234050;28;20545;-70
2021/04/23 08:10:41;;;;;;;23.10;4.68;;;;;;;7.45;67.89;102580.69;6231532;28;20042;-70
2021/04/23 08:13:42;;;;;;;15.85;4.20;;;;;;;7.49;67.92;102578.03;6229929;28;20045;-71
2021/04/23 08:16:43;;;;;;;23.80;4.13;;;;;;;7.51;66.84;102586.75;6228810;28;20475;-71
2021/04/23 08:19:44;;;;;;;14.32;3.38;;;;;;;7.44;66.76;102578.97;6232963;28;20037;-71
2021/04/23 08:22:45;;;;;;;15.57;4.18;;;;;;;7.56;66.38;102584.09;6236257;28;20474;-71
2021/04/23 08:25:48;;;;;;;13.60;3.45;;;;;;;7.91;64.94;102574.94;6237878;28;20513;-71
2021/04/23 08:28:49;;;;;;;17.00;4.55;;;;;;;8.02;64.59;102583.50;6243035;28;20108;-71
2021/04/23 08:31:50;;;;;;;27.60;4.70;;;;;;;7.89;65.46;102593.28;6250707;28;20501;-71
2021/04/23 08:34:51;;;;;;;14.32;3.90;;;;;;;7.84;66.21;102587.22;6235919;28;20045;-71
2021/04/23 08:37:54;;;;;;;18.52;4.40;;;;;;;7.61;65.12;102598.84;6236539;28;20049;-70
2021/04/23 08:40:57;;;;;;;9.55;3.45;;;;;;;7.70;64.33;102589.16;6236212;28;20042;-71
2021/04/23 08:43:58;;;;;;;16.48;3.92;;;;;;;7.92;64.71;102592.38;6236360;28;20046;-70
2021/04/23 08:46:59;;;;;;;18.85;3.92;;;;;;;8.18;63.17;102592.06;6235817;28;20045;-71
2021/04/23 08:50:01;;;;;;;22.77;3.92;;;;;;;7.93;61.90;102591.50;6236815;28;20053;-71
2021/04/23 08:53:04;;;;;;;17.75;4.38;;;;;;;7.82;63.03;102595.13;6231751;28;20045;-71
2021/04/23 08:56:06;;;;;;;15.07;3.58;;;;;;;7.77;62.64;102596.94;6232630;28;20816;-72
2021/04/23 08:59:07;;;;;;;17.65;4.10;;;;;;;8.00;63.63;102585.31;6233944;28;20056;-72
2021/04/23 09:02:08;;;;;;;13.98;4.10;;;;;;;8.29;62.95;102587.50;6228091;28;20133;-72
2021/04/23 09:05:12;;;;;;;16.85;3.85;;;;;;;8.39;63.29;102586.53;6236649;28;20493;-71
2021/04/23 09:08:14;;;;;;;13.65;3.90;;;;;;;8.72;61.00;102593.03;6236984;28;20152;-71
2021/04/23 09:11:18;;;;;;;15.68;4.30;;;;;;;8.54;62.50;102598.53;6229960;28;20058;-70
2021/04/23 09:14:21;;;;;;;21.05;4.03;;;;;;;8.41;64.06;102595.25;6224228;28;20108;-70
2021/04/23 09:17:24;;;;;;;13.32;3.30;;;;;;;8.81;61.50;102598.13;6225396;28;20045;-71
2021/04/23 09:20:28;;;;;;;21.35;3.97;;;;;;;8.67;60.18;102601.81;6223656;28;20042;-71
2021/04/23 09:23:29;;;;;;;12.93;3.65;;;;;;;8.88;59.70;102598.88;6234723;28;20497;-70
2021/04/23 09:26:33;;;;;;;13.45;4.07;;;;;;;8.72;59.53;102586.88;6234189;28;20094;-71
2021/04/23 09:29:35;;;;;;;22.33;5.07;;;;;;;8.61;58.33;102589.69;6226724;28;20046;-70
2021/04/23 09:32:38;;;;;;;13.55;3.78;;;;;;;8.72;58.49;102600.00;6227462;28;20045;-71
2021/04/23 09:35:39;;;;;;;12.40;3.70;;;;;;;8.83;58.27;102587.59;6232752;28;20132;-71
2021/04/23 09:38:43;;;;;;;16.27;3.88;;;;;;;9.37;57.74;102605.88;6232630;28;20449;-71
2021/04/23 09:41:58;;;;;;;21.15;3.88;;;;;;;9.33;58.95;102604.22;6235488;28;20049;-72
2021/04/23 09:45:05;;;;;;;19.35;4.30;;;;;;;9.14;57.62;102615.03;6235303;28;20041;-72
2021/04/23 09:48:17;;;;;;;17.45;4.43;;;;;;;8.99;58.12;102604.78;6233251;28;20049;-71
2021/04/23 09:51:19;;;;;;;18.92;3.60;;;;;;;8.74;57.66;102611.34;6246665;28;20053;-71
2021/04/23 09:54:23;;;;;;;24.38;4.43;;;;;;;9.19;58.20;102611.47;6246742;28;20053;-71
2021/04/23 09:57:27;;;;;;;13.68;3.80;;;;;;;9.37;59.03;102608.50;6248953;28;20498;-71
2021/04/23 10:00:29;;;;;;;21.02;4.22;;;;;;;9.45;59.31;102613.59;6248420;28;20053;-71
2021/04/23 10:03:32;;;;;;;17.98;4.63;;;;;;;9.15;59.59;102605.41;6248645;28;20095;-71
2021/04/23 10:06:33;;;;;;;20.42;4.72;;;;;;;9.24;60.84;102610.47;6248987;28;20072;-70
2021/04/23 10:09:34;;;;;;;21.25;4.68;;;;;;;9.03;59.85;102611.72;6248478;28;20132;-68
2021/04/23 10:12:42;;;;;;;15.48;4.13;;;;;;;9.45;58.76;102616.22;6248241;28;20056;-71
2021/04/23 10:15:45;;;;;;;15.45;4.10;;;;;;;9.62;57.73;102612.38;6246949;28;20153;-71
2021/04/23 10:18:46;;;;;;;14.30;4.00;;;;;;;9.48;56.55;102608.28;6248029;28;20045;-71
2021/04/23 10:21:47;;;;;;;17.80;3.22;;;;;;;9.50;55.06;102610.00;6248211;28;20060;-71
2021/04/23 10:24:49;;;;;;;12.02;3.30;;;;;;;9.44;56.15;102602.22;6246682;28;20058;-71
2021/04/23 10:27:53;;;;;;;18.15;3.63;;;;;;;9.58;57.64;102597.63;6247536;28;20049;-71
2021/04/23 10:30:55;;;;;;;21.08;3.90;;;;;;;9.85;54.47;102593.53;6248033;28;20532;-71
2021/04/23 10:33:56;;;;;;;18.55;4.53;;;;;;;9.89;54.24;102589.09;6247826;28;20068;-71
2021/04/23 10:36:57;;;;;;;17.17;4.03;;;;;;;10.04;54.69;102580.91;6247792;28;20060;-71
2021/04/23 10:39:59;;;;;;;12.80;3.28;;;;;;;10.25;53.71;102587.47;6247752;28;20049;-71
2021/04/23 10:43:05;;;;;;;16.35;3.00;;;;;;;9.83;53.45;102592.72;6246738;28;20049;-71
2021/04/23 10:46:09;;;;;;;12.30;3.20;;;;;;;9.60;54.99;102585.31;6247962;28;20513;-71
2021/04/23 10:49:10;;;;;;;12.48;3.78;;;;;;;9.57;54.99;102601.09;6247397;28;20073;-71
2021/04/23 10:52:11;;;;;;;18.90;3.75;;;;;;;9.98;53.93;102575.78;6247429;28;20089;-72
2021/04/23 10:55:12;;;;;;;12.60;3.47;;;;;;;10.37;54.77;102586.34;6247243;28;20049;-72
2021/04/23 10:58:16;;;;;;;14.05;4.03;;;;;;;10.64;53.72;102583.06;6247362;28;20045;-72
2021/04/23 11:01:26;;;;;;;25.77;3.58;;;;;;;10.43;52.83;102591.44;6239253;28;20042;-71
2021/04/23 11:04:27;;;;;;;13.23;2.83;;;;;;;10.69;50.27;102595.25;6238576;28;20061;-70
2021/04/23 11:07:30;;;;;;;8.90;3.17;;;;;;;10.75;50.07;102593.31;6247305;28;20072;-70
2021/04/23 11:11:12;;;;;;;14.63;3.50;;;;;;;10.84;51.56;102589.59;6235822;28;20418;-70
2021/04/23 11:14:24;;;;;;;16.48;3.55;;;;;;;10.56;51.99;102586.78;6247413;28;20064;-70
2021/04/23 11:17:32;;;;;;;17.35;3.35;;;;;;;10.64;53.14;102583.06;6247442;28;20050;-73
2021/04/23 11:20:33;;;;;;;13.95;3.05;;;;;;;10.66;53.90;102585.66;6246821;28;20041;-71
2021/04/23 11:24:07;;;;;;;18.65;3.45;;;;;;;11.11;50.79;102581.00;6246839;28;20045;-70
2021/04/23 11:27:11;;;;;;;14.20;2.90;;;;;;;11.11;49.09;102585.41;6246495;28;20095;-70
2021/04/23 11:30:14;;;;;;;8.77;3.03;;;;;;;11.15;47.73;102585.28;6246725;28;20045;-71
2021/04/23 11:33:44;;;;;;;13.10;2.80;;;;;;;11.61;48.83;102589.28;6246877;28;20045;-71
2021/04/23 11:36:59;;;;;;;13.20;2.97;;;;;;;11.39;47.57;102581.13;6246785;28;20049;-72
2021/04/23 11:40:15;;;;;;;13.07;3.38;;;;;;;11.83;48.35;102586.94;6246755;28;20045;-71
2021/04/23 11:43:36;;;;;;;13.10;3.17;;;;;;;11.56;46.90;102579.81;6246460;28;20133;-70
2021/04/23 11:46:49;;;;;;;10.65;3.00;;;;;;;11.98;48.46;102583.00;6246714;28;20075;-72
2021/04/23 11:49:59;;;;;;;11.10;2.38;;;;;;;12.14;44.19;102588.69;6246358;28;20095;-71
2021/04/23 11:53:06;;;;;;;6.95;2.72;;;;;;;12.08;43.56;102583.56;6247873;28;20521;-72
2021/04/23 11:56:07;;;;;;;21.23;3.20;;;;;;;12.66;42.12;102576.47;6251919;28;20057;-72
2021/04/23 11:59:08;;;;;;;12.70;3.03;;;;;;;12.75;41.46;102573.53;6251613;28;20049;-72
2021/04/23 12:02:09;;;;;;;15.27;2.47;;;;;;;12.76;41.32;102571.75;6251467;28;20745;-73
2021/04/23 12:05:20;;;;;;;14.30;2.80;;;;;;;12.95;41.81;102580.81;6251284;28;20046;-73
2021/04/23 12:08:23;;;;;;;15.90;2.60;;;;;;;13.58;43.20;102578.59;6251246;28;20049;-73
2021/04/23 12:11:24;;;;;;;17.25;3.45;;;;;;;13.69;44.79;102579.09;6251371;28;20096;-75
2021/04/23 12:14:39;;;;;;;11.38;3.20;;;;;;;13.16;42.29;102574.75;6251016;28;20490;-71
2021/04/23 12:17:42;;;;;;;9.73;2.90;;;;;;;13.25;43.38;102578.91;6251205;28;20107;-73
2021/04/23 12:20:44;;;;;;;10.05;3.17;;;;;;;13.31;41.84;102569.91;6250949;28;20132;-71
2021/04/23 12:23:46;;;;;;;10.68;2.25;;;;;;;13.52;42.98;102558.56;6251050;28;20060;-73
2021/04/23 12:26:47;;;;;;;12.88;3.08;;;;;;;13.81;41.17;102562.78;6250520;28;20049;-73
2021/04/23 12:29:48;;;;;;;12.77;3.75;;;;;;;14.11;40.95;102563.38;6251180;28;20057;-73
2021/04/23 12:32:54;;;;;;;13.40;3.00;;;;;;;14.15;40.60;102554.41;6250619;28;20053;-73
2021/04/23 12:35:55;;;;;;;12.20;3.13;;;;;;;14.29;42.51;102551.19;6251039;28;20046;-73
2021/04/23 12:38:59;;;;;;;16.55;2.65;;;;;;;14.76;38.78;102555.50;6250810;28;20195;-73
2021/04/23 12:42:03;;;;;;;11.90;2.92;;;;;;;14.44;39.17;102557.66;6237340;28;20071;-71
2021/04/23 12:45:05;;;;;;;6.80;2.22;;;;;;;14.31;37.61;102552.03;6238664;28;20053;-72
2021/04/23 12:48:07;;;;;;;7.68;2.00;;;;;;;14.74;33.78;102542.34;6250207;28;20430;-72
2021/04/23 12:51:08;;;;;;;8.77;1.90;;;;;;;15.04;32.94;102560.50;6250459;28;20049;-72
2021/04/23 12:54:10;;;;;;;7.53;1.67;;;;;;;14.91;32.38;102561.03;6238909;28;20046;-73
2021/04/23 12:57:13;;;;;;;7.93;1.92;;;;;;;14.99;31.87;102555.41;6247681;28;20045;-71
2021/04/23 13:00:17;;;;;;;7.70;2.15;;;;;;;15.16;34.86;102555.50;6250243;28;20048;-71
2021/04/23 13:03:22;;;;;;;13.45;2.25;;;;;;;14.80;34.44;102550.00;6249951;28;20089;-71
2021/04/23 13:06:24;;;;;;;9.32;2.25;;;;;;;14.61;34.54;102555.22;6249329;28;20056;-72
2021/04/23 13:09:30;;;;;;;7.90;2.25;;;;;;;14.58;37.46;102551.81;6250048;28;20049;-71
2021/04/23 13:12:36;;;;;;;8.00;2.00;;;;;;;14.56;33.79;102549.25;6249743;28;20049;-72
2021/04/23 13:15:39;;;;;;;10.23;2.13;;;;;;;14.37;33.14;102543.81;6249771;28;20050;-71
2021/04/23 13:18:45;;;;;;;9.88;2.03;;;;;;;14.74;35.04;102549.41;6249460;28;20057;-72
2021/04/23 13:21:46;;;;;;;8.25;2.03;;;;;;;15.11;33.87;102548.69;6249833;28;20386;-72
2021/04/23 13:24:47;;;;;;;8.88;2.00;;;;;;;15.00;32.71;102545.69;6249307;28;20053;-71
2021/04/23 13:27:50;;;;;;;11.35;2.08;;;;;;;15.16;32.09;102546.72;6249132;28;20061;-72
2021/04/23 13:30:54;;;;;;;8.55;1.77;;;;;;;14.82;34.19;102537.59;6249434;28;20049;-71
2021/04/23 13:34:04;;;;;;;7.72;2.15;;;;;;;14.82;34.10;102544.66;6249212;28;20050;-72
2021/04/23 13:37:05;;;;;;;8.57;2.00;;;;;;;15.03;33.92;102540.22;6249419;28;20145;-71
2021/04/23 13:40:08;;;;;;;8.27;2.50;;;;;;;14.83;34.57;102535.78;6249223;28;20125;-74
2021/04/23 13:43:11;;;;;;;8.10;2.58;;;;;;;15.02;35.65;102528.78;6248854;28;20414;-71
2021/04/23 13:46:13;;;;;;;10.50;2.83;;;;;;;15.79;33.16;102530.66;6249213;28;20075;-71
2021/04/23 13:49:27;;;;;;;6.43;1.98;;;;;;;15.66;33.58;102528.56;6248751;28;20460;-71
2021/04/23 13:52:28;;;;;;;13.45;2.00;;;;;;;15.69;33.82;102525.78;6248950;28;20426;-71
2021/04/23 13:55:29;;;;;;;10.38;2.33;;;;;;;15.33;32.43;102524.78;6248637;28;20136;-71
2021/04/23 13:58:30;;;;;;;9.93;1.90;;;;;;;15.77;32.70;102529.88;6248912;28;20084;-71
2021/04/23 14:01:48;;;;;;;5.57;1.73;;;;;;;16.26;34.48;102516.91;6248664;28;20042;-71
2021/04/23 14:04:51;;;;;;;5.30;1.58;;;;;;;16.24;31.48;102515.19;6248652;28;20179;-72
2021/04/23 14:07:52;;;;;;;10.75;2.13;;;;;;;15.73;32.04;102516.75;6248515;28;20053;-71
2021/04/23 14:10:53;;;;;;;6.68;2.00;;;;;;;15.51;32.63;102508.06;6248733;28;20053;-71